sensor_id;sensor_type;location;lat;lon;timestamp;temperature;humidity
20528;DHT22;23612;50.894;10.700;2023-08-24T00:01:16;15.20;99.90
20528;DHT22;23612;50.894;10.700;2023-08-24T00:03:45;15.20;99.90
20528;DHT22;23612;50.894;10.700;2023-08-24T00:06:13;15.20;99.90
20528;DHT22;23612;50.894;10.700;2023-08-24T00:08:39;15.10;99.90
20528;DHT22;23612;50.894;10.700;2023-08-24T00:11:05;15.10;99.90
20528;DHT22;23612;50.894;10.700;2023-08-24T00:13:31;15.10;99.90
20528;DHT22;23612;50.894;10.700;2023-08-24T00:15:57;15.10;99.90
20528;DHT22;23612;50.894;10.700;2023-08-24T00:18:22;15.10;99.90
20528;DHT22;23612;50.894;10.700;2023-08-24T00:20:48;15.10;99.90
20528;DHT22;23612;50.894;10.700;2023-08-24T00:23:14;15.10;99.90
20528;DHT22;23612;50.894;10.700;2023-08-24T00:25:40;15.10;99.90
20528;DHT22;23612;50.894;10.700;2023-08-24T00:28:08;15.10;99.90
20528;DHT22;23612;50.894;10.700;2023-08-24T00:30:34;15.00;99.90
20528;DHT22;23612;50.894;10.700;2023-08-24T00:33:00;15.00;99.90
20528;DHT22;23612;50.894;10.700;2023-08-24T00:35:25;14.90;99.90
20528;DHT22;23612;50.894;10.700;2023-08-24T00:37:51;15.00;99.90
20528;DHT22;23612;50.894;10.700;2023-08-24T00:40:17;15.00;99.90
20528;DHT22;23612;50.894;10.700;2023-08-24T00:42:44;14.90;99.90
20528;DHT22;23612;50.894;10.700;2023-08-24T00:45:12;14.90;99.90
20528;DHT22;23612;50.894;10.700;2023-08-24T00:47:46;14.80;99.90
20528;DHT22;23612;50.894;10.700;2023-08-24T00:50:12;14.80;99.90
20528;DHT22;23612;50.894;10.700;2023-08-24T00:52:40;14.80;99.90
20528;DHT22;23612;50.894;10.700;2023-08-24T00:55:07;14.80;99.90
20528;DHT22;23612;50.894;10.700;2023-08-24T00:57:33;14.80;99.90
20528;DHT22;23612;50.894;10.700;2023-08-24T01:00:00;14.80;99.90
20528;DHT22;23612;50.894;10.700;2023-08-24T01:02:27;14.80;99.90
20528;DHT22;23612;50.894;10.700;2023-08-24T01:04:53;14.80;99.90
20528;DHT22;23612;50.894;10.700;2023-08-24T01:07:20;14.80;99.90
20528;DHT22;23612;50.894;10.700;2023-08-24T01:09:46;14.70;99.90
20528;DHT22;23612;50.894;10.700;2023-08-24T01:15:19;14.70;99.90
20528;DHT22;23612;50.894;10.700;2023-08-24T01:17:47;14.70;99.90
20528;DHT22;23612;50.894;10.700;2023-08-24T01:20:15;14.70;99.90
20528;DHT22;23612;50.894;10.700;2023-08-24T01:22:54;14.70;99.90
20528;DHT22;23612;50.894;10.700;2023-08-24T01:28:25;14.70;99.90
20528;DHT22;23612;50.894;10.700;2023-08-24T01:30:51;14.60;99.90
20528;DHT22;23612;50.894;10.700;2023-08-24T01:33:16;14.60;99.90
20528;DHT22;23612;50.894;10.700;2023-08-24T01:35:42;14.60;99.90
20528;DHT22;23612;50.894;10.700;2023-08-24T01:38:08;14.60;99.90
20528;DHT22;23612;50.894;10.700;2023-08-24T01:43:25;14.60;99.90
20528;DHT22;23612;50.894;10.700;2023-08-24T01:45:52;14.60;99.90
20528;DHT22;23612;50.894;10.700;2023-08-24T01:48:18;14.60;99.90
20528;DHT22;23612;50.894;10.700;2023-08-24T01:50:45;14.60;99.90
20528;DHT22;23612;50.894;10.700;2023-08-24T01:53:11;14.60;99.90
20528;DHT22;23612;50.894;10.700;2023-08-24T01:55:37;14.60;99.90
20528;DHT22;23612;50.894;10.700;2023-08-24T01:58:03;14.60;99.90
20528;DHT22;23612;50.894;10.700;2023-08-24T02:00:28;14.60;99.90
20528;DHT22;23612;50.894;10.700;2023-08-24T02:02:54;14.50;99.90
20528;DHT22;23612;50.894;10.700;2023-08-24T02:05:19;14.50;99.90
20528;DHT22;23612;50.894;10.700;2023-08-24T02:07:45;14.50;99.90
20528;DHT22;23612;50.894;10.700;2023-08-24T02:10:10;14.50;99.90
20528;DHT22;23612;50.894;10.700;2023-08-24T02:12:36;14.50;99.90
20528;DHT22;23612;50.894;10.700;2023-08-24T02:15:01;14.40;99.90
20528;DHT22;23612;50.894;10.700;2023-08-24T02:17:27;14.40;99.90
20528;DHT22;23612;50.894;10.700;2023-08-24T02:19:53;14.40;99.90
20528;DHT22;23612;50.894;10.700;2023-08-24T02:22:18;14.50;99.90
20528;DHT22;23612;50.894;10.700;2023-08-24T02:24:44;14.50;99.90
20528;DHT22;23612;50.894;10.700;2023-08-24T02:27:09;14.50;99.90
20528;DHT22;23612;50.894;10.700;2023-08-24T02:29:35;14.50;99.90
20528;DHT22;23612;50.894;10.700;2023-08-24T02:32:01;14.40;99.90
20528;DHT22;23612;50.894;10.700;2023-08-24T02:34:27;14.40;99.90
20528;DHT22;23612;50.894;10.700;2023-08-24T02:36:52;14.30;99.90
20528;DHT22;23612;50.894;10.700;2023-08-24T02:39:18;14.30;99.90
20528;DHT22;23612;50.894;10.700;2023-08-24T02:41:43;14.30;99.90
20528;DHT22;23612;50.894;10.700;2023-08-24T02:44:09;14.30;99.90
20528;DHT22;23612;50.894;10.700;2023-08-24T02:46:34;14.30;99.90
20528;DHT22;23612;50.894;10.700;2023-08-24T02:49:00;14.30;99.90
20528;DHT22;23612;50.894;10.700;2023-08-24T02:51:25;14.20;99.90
20528;DHT22;23612;50.894;10.700;2023-08-24T02:53:51;14.30;99.90
20528;DHT22;23612;50.894;10.700;2023-08-24T02:56:17;14.20;99.90
20528;DHT22;23612;50.894;10.700;2023-08-24T02:58:42;14.20;99.90
20528;DHT22;23612;50.894;10.700;2023-08-24T03:01:08;14.20;99.90
20528;DHT22;23612;50.894;10.700;2023-08-24T03:03:37;14.20;99.90
20528;DHT22;23612;50.894;10.700;2023-08-24T03:06:04;14.20;99.90
20528;DHT22;23612;50.894;10.700;2023-08-24T03:08:31;14.20;99.90
20528;DHT22;23612;50.894;10.700;2023-08-24T03:10:58;14.30;99.90
20528;DHT22;23612;50.894;10.700;2023-08-24T03:13:23;14.20;99.90
20528;DHT22;23612;50.894;10.700;2023-08-24T03:15:49;14.20;99.90
20528;DHT22;23612;50.894;10.700;2023-08-24T03:18:16;14.20;99.90
20528;DHT22;23612;50.894;10.700;2023-08-24T03:20:42;14.10;99.90
20528;DHT22;23612;50.894;10.700;2023-08-24T03:23:08;14.10;99.90
20528;DHT22;23612;50.894;10.700;2023-08-24T03:25:37;14.00;99.90
20528;DHT22;23612;50.894;10.700;2023-08-24T03:28:03;14.00;99.90
20528;DHT22;23612;50.894;10.700;2023-08-24T03:30:29;14.00;99.90
20528;DHT22;23612;50.894;10.700;2023-08-24T03:32:55;14.00;99.90
20528;DHT22;23612;50.894;10.700;2023-08-24T03:35:20;13.90;99.90
20528;DHT22;23612;50.894;10.700;2023-08-24T03:37:46;13.90;99.90
20528;DHT22;23612;50.894;10.700;2023-08-24T03:40:12;13.90;99.90
20528;DHT22;23612;50.894;10.700;2023-08-24T03:42:37;13.90;99.90
20528;DHT22;23612;50.894;10.700;2023-08-24T03:45:03;13.80;99.90
20528;DHT22;23612;50.894;10.700;2023-08-24T03:47:29;13.80;99.90
20528;DHT22;23612;50.894;10.700;2023-08-24T03:49:55;13.80;99.90
20528;DHT22;23612;50.894;10.700;2023-08-24T03:52:20;13.80;99.90
20528;DHT22;23612;50.894;10.700;2023-08-24T03:54:46;13.80;99.90
20528;DHT22;23612;50.894;10.700;2023-08-24T03:57:11;13.80;99.90
20528;DHT22;23612;50.894;10.700;2023-08-24T03:59:37;13.80;99.90
20528;DHT22;23612;50.894;10.700;2023-08-24T04:02:02;13.80;99.90
20528;DHT22;23612;50.894;10.700;2023-08-24T04:04:30;13.80;99.90
20528;DHT22;23612;50.894;10.700;2023-08-24T04:06:55;13.80;99.90
20528;DHT22;23612;50.894;10.700;2023-08-24T04:09:21;13.80;99.90
20528;DHT22;23612;50.894;10.700;2023-08-24T04:11:46;13.70;99.90
20528;DHT22;23612;50.894;10.700;2023-08-24T04:14:12;13.80;99.90
20528;DHT22;23612;50.894;10.700;2023-08-24T04:16:39;13.80;99.90
20528;DHT22;23612;50.894;10.700;2023-08-24T04:19:04;13.80;99.90
20528;DHT22;23612;50.894;10.700;2023-08-24T04:21:30;13.70;99.90
20528;DHT22;23612;50.894;10.700;2023-08-24T04:23:56;13.60;99.90
20528;DHT22;23612;50.894;10.700;2023-08-24T04:26:21;13.60;99.90
20528;DHT22;23612;50.894;10.700;2023-08-24T04:28:47;13.50;99.90
20528;DHT22;23612;50.894;10.700;2023-08-24T04:31:12;13.50;99.90
20528;DHT22;23612;50.894;10.700;2023-08-24T04:33:38;13.50;99.90
20528;DHT22;23612;50.894;10.700;2023-08-24T04:36:03;13.50;99.90
20528;DHT22;23612;50.894;10.700;2023-08-24T04:38:29;13.50;99.90
20528;DHT22;23612;50.894;10.700;2023-08-24T04:40:55;13.60;99.90
20528;DHT22;23612;50.894;10.700;2023-08-24T04:43:22;13.60;99.90
20528;DHT22;23612;50.894;10.700;2023-08-24T04:45:50;13.60;99.90
20528;DHT22;23612;50.894;10.700;2023-08-24T04:48:21;13.70;99.90
20528;DHT22;23612;50.894;10.700;2023-08-24T04:50:47;13.70;99.90
20528;DHT22;23612;50.894;10.700;2023-08-24T04:53:18;13.90;99.90
20528;DHT22;23612;50.894;10.700;2023-08-24T04:55:44;14.00;99.90
20528;DHT22;23612;50.894;10.700;2023-08-24T04:58:10;14.20;99.90
20528;DHT22;23612;50.894;10.700;2023-08-24T05:00:37;14.40;99.90
20528;DHT22;23612;50.894;10.700;2023-08-24T05:03:04;14.70;99.90
20528;DHT22;23612;50.894;10.700;2023-08-24T05:05:30;15.00;99.90
20528;DHT22;23612;50.894;10.700;2023-08-24T05:07:57;15.40;99.90
20528;DHT22;23612;50.894;10.700;2023-08-24T05:10:23;15.70;99.90
20528;DHT22;23612;50.894;10.700;2023-08-24T05:12:48;16.00;99.90
20528;DHT22;23612;50.894;10.700;2023-08-24T05:15:14;16.40;99.90
20528;DHT22;23612;50.894;10.700;2023-08-24T05:17:40;16.70;99.90
20528;DHT22;23612;50.894;10.700;2023-08-24T05:20:06;17.00;99.90
20528;DHT22;23612;50.894;10.700;2023-08-24T05:22:33;17.30;99.90
20528;DHT22;23612;50.894;10.700;2023-08-24T05:24:59;17.60;99.90
20528;DHT22;23612;50.894;10.700;2023-08-24T05:27:24;17.70;99.90
20528;DHT22;23612;50.894;10.700;2023-08-24T05:29:50;17.90;99.90
20528;DHT22;23612;50.894;10.700;2023-08-24T05:32:15;18.10;99.90
20528;DHT22;23612;50.894;10.700;2023-08-24T05:34:40;18.10;99.90
20528;DHT22;23612;50.894;10.700;2023-08-24T05:37:06;18.50;99.90
20528;DHT22;23612;50.894;10.700;2023-08-24T05:39:31;18.90;99.90
20528;DHT22;23612;50.894;10.700;2023-08-24T05:41:57;19.30;99.90
20528;DHT22;23612;50.894;10.700;2023-08-24T05:44:22;19.70;99.90
20528;DHT22;23612;50.894;10.700;2023-08-24T05:46:48;20.30;99.90
20528;DHT22;23612;50.894;10.700;2023-08-24T05:49:13;21.00;99.90
20528;DHT22;23612;50.894;10.700;2023-08-24T05:51:39;21.60;99.90
20528;DHT22;23612;50.894;10.700;2023-08-24T05:54:05;22.00;99.90
20528;DHT22;23612;50.894;10.700;2023-08-24T05:56:31;22.20;99.90
20528;DHT22;23612;50.894;10.700;2023-08-24T05:58:58;22.40;99.90
20528;DHT22;23612;50.894;10.700;2023-08-24T06:01:23;22.70;99.90
20528;DHT22;23612;50.894;10.700;2023-08-24T06:03:49;23.10;99.90
20528;DHT22;23612;50.894;10.700;2023-08-24T06:06:15;23.40;99.90
20528;DHT22;23612;50.894;10.700;2023-08-24T06:08:42;23.60;99.90
20528;DHT22;23612;50.894;10.700;2023-08-24T06:11:07;23.80;99.90
20528;DHT22;23612;50.894;10.700;2023-08-24T06:13:33;24.00;99.90
20528;DHT22;23612;50.894;10.700;2023-08-24T06:15:59;24.00;99.90
20528;DHT22;23612;50.894;10.700;2023-08-24T06:18:24;25.20;99.90
20528;DHT22;23612;50.894;10.700;2023-08-24T06:20:50;24.80;99.90
20528;DHT22;23612;50.894;10.700;2023-08-24T06:23:19;24.20;99.90
20528;DHT22;23612;50.894;10.700;2023-08-24T06:25:45;24.00;99.90
20528;DHT22;23612;50.894;10.700;2023-08-24T06:28:11;24.00;99.90
20528;DHT22;23612;50.894;10.700;2023-08-24T06:30:43;24.60;99.90
20528;DHT22;23612;50.894;10.700;2023-08-24T06:33:09;25.20;99.90
20528;DHT22;23612;50.894;10.700;2023-08-24T06:35:36;25.00;99.90
20528;DHT22;23612;50.894;10.700;2023-08-24T06:38:02;25.50;99.90
20528;DHT22;23612;50.894;10.700;2023-08-24T06:40:28;25.60;99.90
20528;DHT22;23612;50.894;10.700;2023-08-24T06:42:54;25.10;99.90
20528;DHT22;23612;50.894;10.700;2023-08-24T06:45:20;24.50;99.90
20528;DHT22;23612;50.894;10.700;2023-08-24T06:47:45;24.50;99.90
20528;DHT22;23612;50.894;10.700;2023-08-24T06:50:11;24.90;99.90
20528;DHT22;23612;50.894;10.700;2023-08-24T06:52:37;25.30;99.90
20528;DHT22;23612;50.894;10.700;2023-08-24T06:55:04;26.30;99.90
20528;DHT22;23612;50.894;10.700;2023-08-24T06:57:30;26.90;99.90
20528;DHT22;23612;50.894;10.700;2023-08-24T06:59:55;26.90;99.90
20528;DHT22;23612;50.894;10.700;2023-08-24T07:02:21;27.00;99.90
20528;DHT22;23612;50.894;10.700;2023-08-24T07:04:47;27.90;99.90
20528;DHT22;23612;50.894;10.700;2023-08-24T07:07:12;28.90;99.90
20528;DHT22;23612;50.894;10.700;2023-08-24T07:09:38;29.20;99.90
20528;DHT22;23612;50.894;10.700;2023-08-24T07:12:03;29.10;99.90
20528;DHT22;23612;50.894;10.700;2023-08-24T07:14:32;28.40;99.90
20528;DHT22;23612;50.894;10.700;2023-08-24T07:16:58;27.60;99.90
20528;DHT22;23612;50.894;10.700;2023-08-24T07:19:32;26.80;99.90
20528;DHT22;23612;50.894;10.700;2023-08-24T07:21:57;25.80;99.90
20528;DHT22;23612;50.894;10.700;2023-08-24T07:24:23;25.10;99.90
20528;DHT22;23612;50.894;10.700;2023-08-24T07:26:52;24.50;99.90
20528;DHT22;23612;50.894;10.700;2023-08-24T07:29:18;24.40;99.90
20528;DHT22;23612;50.894;10.700;2023-08-24T07:31:43;24.40;99.90
20528;DHT22;23612;50.894;10.700;2023-08-24T07:34:09;24.80;99.90
20528;DHT22;23612;50.894;10.700;2023-08-24T07:36:34;25.40;99.90
20528;DHT22;23612;50.894;10.700;2023-08-24T07:39:00;25.90;99.90
20528;DHT22;23612;50.894;10.700;2023-08-24T07:41:25;25.90;99.90
20528;DHT22;23612;50.894;10.700;2023-08-24T07:43:51;25.60;99.90
20528;DHT22;23612;50.894;10.700;2023-08-24T07:46:16;25.80;99.90
20528;DHT22;23612;50.894;10.700;2023-08-24T07:48:42;26.20;99.90
20528;DHT22;23612;50.894;10.700;2023-08-24T07:51:07;26.10;99.90
20528;DHT22;23612;50.894;10.700;2023-08-24T07:53:34;26.60;99.90
20528;DHT22;23612;50.894;10.700;2023-08-24T07:56:00;27.40;99.90
20528;DHT22;23612;50.894;10.700;2023-08-24T07:58:26;28.00;99.90
20528;DHT22;23612;50.894;10.700;2023-08-24T08:00:52;28.50;99.90
20528;DHT22;23612;50.894;10.700;2023-08-24T08:03:19;28.90;99.90
20528;DHT22;23612;50.894;10.700;2023-08-24T08:05:45;28.70;99.90
20528;DHT22;23612;50.894;10.700;2023-08-24T08:08:11;27.90;99.90
20528;DHT22;23612;50.894;10.700;2023-08-24T08:10:36;27.10;99.90
20528;DHT22;23612;50.894;10.700;2023-08-24T08:13:02;27.00;99.90
20528;DHT22;23612;50.894;10.700;2023-08-24T08:15:27;26.70;99.90
20528;DHT22;23612;50.894;10.700;2023-08-24T08:17:53;26.30;99.90
20528;DHT22;23612;50.894;10.700;2023-08-24T08:20:18;25.90;99.90
20528;DHT22;23612;50.894;10.700;2023-08-24T08:22:44;25.70;99.90
20528;DHT22;23612;50.894;10.700;2023-08-24T08:25:10;25.30;99.90
20528;DHT22;23612;50.894;10.700;2023-08-24T08:27:37;25.00;99.90
20528;DHT22;23612;50.894;10.700;2023-08-24T08:30:03;24.70;99.90
20528;DHT22;23612;50.894;10.700;2023-08-24T08:32:30;24.50;99.90
20528;DHT22;23612;50.894;10.700;2023-08-24T08:34:56;24.20;99.90
20528;DHT22;23612;50.894;10.700;2023-08-24T08:37:23;23.90;99.90
20528;DHT22;23612;50.894;10.700;2023-08-24T08:39:49;23.80;99.90
20528;DHT22;23612;50.894;10.700;2023-08-24T08:42:14;23.50;99.90
20528;DHT22;23612;50.894;10.700;2023-08-24T08:44:41;23.30;99.90
20528;DHT22;23612;50.894;10.700;2023-08-24T08:47:10;23.10;99.90
20528;DHT22;23612;50.894;10.700;2023-08-24T08:49:38;22.90;99.90
20528;DHT22;23612;50.894;10.700;2023-08-24T08:52:05;22.80;99.90
20528;DHT22;23612;50.894;10.700;2023-08-24T08:54:31;22.70;99.90
20528;DHT22;23612;50.894;10.700;2023-08-24T08:56:58;22.60;99.90
20528;DHT22;23612;50.894;10.700;2023-08-24T08:59:25;22.60;99.90
20528;DHT22;23612;50.894;10.700;2023-08-24T09:01:55;22.60;99.90
20528;DHT22;23612;50.894;10.700;2023-08-24T09:04:22;22.70;99.90
20528;DHT22;23612;50.894;10.700;2023-08-24T09:06:47;23.00;99.90
20528;DHT22;23612;50.894;10.700;2023-08-24T09:09:13;23.20;99.90
20528;DHT22;23612;50.894;10.700;2023-08-24T09:11:40;23.20;99.90
20528;DHT22;23612;50.894;10.700;2023-08-24T09:14:07;23.20;99.90
20528;DHT22;23612;50.894;10.700;2023-08-24T09:16:33;22.90;99.90
20528;DHT22;23612;50.894;10.700;2023-08-24T09:19:04;22.90;99.90
20528;DHT22;23612;50.894;10.700;2023-08-24T09:21:30;22.80;99.90
20528;DHT22;23612;50.894;10.700;2023-08-24T09:23:56;22.90;99.90
20528;DHT22;23612;50.894;10.700;2023-08-24T09:26:28;23.00;99.90
20528;DHT22;23612;50.894;10.700;2023-08-24T09:28:55;23.20;99.90
20528;DHT22;23612;50.894;10.700;2023-08-24T09:31:20;23.70;99.90
20528;DHT22;23612;50.894;10.700;2023-08-24T09:33:47;23.90;99.90
20528;DHT22;23612;50.894;10.700;2023-08-24T09:36:14;24.20;99.90
20528;DHT22;23612;50.894;10.700;2023-08-24T09:38:47;24.30;99.90
20528;DHT22;23612;50.894;10.700;2023-08-24T09:41:16;24.50;99.90
20528;DHT22;23612;50.894;10.700;2023-08-24T09:43:41;24.50;99.90
20528;DHT22;23612;50.894;10.700;2023-08-24T09:46:07;24.50;99.90
20528;DHT22;23612;50.894;10.700;2023-08-24T09:48:33;24.20;99.90
20528;DHT22;23612;50.894;10.700;2023-08-24T09:51:03;24.30;99.90
20528;DHT22;23612;50.894;10.700;2023-08-24T09:53:32;24.10;99.90
20528;DHT22;23612;50.894;10.700;2023-08-24T09:56:00;24.10;99.90
20528;DHT22;23612;50.894;10.700;2023-08-24T09:58:27;24.00;99.90
20528;DHT22;23612;50.894;10.700;2023-08-24T10:00:53;23.80;99.90
20528;DHT22;23612;50.894;10.700;2023-08-24T10:03:24;23.60;99.90
20528;DHT22;23612;50.894;10.700;2023-08-24T10:05:53;23.60;99.90
20528;DHT22;23612;50.894;10.700;2023-08-24T10:08:26;23.60;99.90
20528;DHT22;23612;50.894;10.700;2023-08-24T10:10:53;23.60;99.90
20528;DHT22;23612;50.894;10.700;2023-08-24T10:13:58;23.70;99.90
20528;DHT22;23612;50.894;10.700;2023-08-24T10:16:27;23.80;99.90
20528;DHT22;23612;50.894;10.700;2023-08-24T10:18:53;23.90;99.90
20528;DHT22;23612;50.894;10.700;2023-08-24T10:21:19;24.10;99.90
20528;DHT22;23612;50.894;10.700;2023-08-24T10:23:46;24.40;99.90
20528;DHT22;23612;50.894;10.700;2023-08-24T10:26:12;24.90;99.90
20528;DHT22;23612;50.894;10.700;2023-08-24T10:28:39;25.70;99.90
20528;DHT22;23612;50.894;10.700;2023-08-24T10:31:05;26.60;99.90
20528;DHT22;23612;50.894;10.700;2023-08-24T10:33:32;27.30;99.90
20528;DHT22;23612;50.894;10.700;2023-08-24T10:35:59;27.90;99.90
20528;DHT22;23612;50.894;10.700;2023-08-24T10:38:29;29.30;99.90
20528;DHT22;23612;50.894;10.700;2023-08-24T10:41:04;30.60;99.90
20528;DHT22;23612;50.894;10.700;2023-08-24T10:43:34;32.00;99.90
20528;DHT22;23612;50.894;10.700;2023-08-24T10:46:00;33.10;99.90
20528;DHT22;23612;50.894;10.700;2023-08-24T10:48:29;32.30;99.90
20528;DHT22;23612;50.894;10.700;2023-08-24T10:53:45;32.10;99.90
20528;DHT22;23612;50.894;10.700;2023-08-24T10:56:15;32.20;99.90
20528;DHT22;23612;50.894;10.700;2023-08-24T10:58:41;32.60;96.00
20528;DHT22;23612;50.894;10.700;2023-08-24T11:01:14;33.10;94.60
20528;DHT22;23612;50.894;10.700;2023-08-24T11:03:40;32.90;92.90
20528;DHT22;23612;50.894;10.700;2023-08-24T11:06:52;32.80;92.10
20528;DHT22;23612;50.894;10.700;2023-08-24T11:09:18;32.80;89.20
20528;DHT22;23612;50.894;10.700;2023-08-24T11:12:01;32.10;87.50
20528;DHT22;23612;50.894;10.700;2023-08-24T11:14:28;31.90;88.30
20528;DHT22;23612;50.894;10.700;2023-08-24T11:16:58;32.00;85.40
20528;DHT22;23612;50.894;10.700;2023-08-24T11:19:25;31.90;85.30
20528;DHT22;23612;50.894;10.700;2023-08-24T11:21:51;31.70;83.10
20528;DHT22;23612;50.894;10.700;2023-08-24T11:24:16;32.00;82.90
20528;DHT22;23612;50.894;10.700;2023-08-24T11:26:48;32.10;81.30
20528;DHT22;23612;50.894;10.700;2023-08-24T11:29:14;32.10;80.70
20528;DHT22;23612;50.894;10.700;2023-08-24T11:31:47;31.90;84.80
20528;DHT22;23612;50.894;10.700;2023-08-24T11:34:15;32.30;82.10
20528;DHT22;23612;50.894;10.700;2023-08-24T11:36:42;32.90;79.80
20528;DHT22;23612;50.894;10.700;2023-08-24T11:39:18;33.00;78.90
20528;DHT22;23612;50.894;10.700;2023-08-24T11:44:23;33.00;78.00
20528;DHT22;23612;50.894;10.700;2023-08-24T11:46:49;33.60;77.00
20528;DHT22;23612;50.894;10.700;2023-08-24T11:49:14;33.50;73.60
20528;DHT22;23612;50.894;10.700;2023-08-24T11:51:40;33.80;73.80
20528;DHT22;23612;50.894;10.700;2023-08-24T11:54:06;33.90;74.70
20528;DHT22;23612;50.894;10.700;2023-08-24T11:56:31;34.00;72.30
20528;DHT22;23612;50.894;10.700;2023-08-24T11:58:57;35.10;69.70
20528;DHT22;23612;50.894;10.700;2023-08-24T12:01:22;35.40;68.60
20528;DHT22;23612;50.894;10.700;2023-08-24T12:03:48;35.80;64.90
20528;DHT22;23612;50.894;10.700;2023-08-24T12:06:15;35.50;64.90
20528;DHT22;23612;50.894;10.700;2023-08-24T12:08:43;35.70;64.20
20528;DHT22;23612;50.894;10.700;2023-08-24T12:11:20;36.20;64.60
20528;DHT22;23612;50.894;10.700;2023-08-24T12:13:50;36.60;64.40
20528;DHT22;23612;50.894;10.700;2023-08-24T12:16:17;37.10;64.80
20528;DHT22;23612;50.894;10.700;2023-08-24T12:18:56;36.90;62.60
20528;DHT22;23612;50.894;10.700;2023-08-24T12:21:24;36.70;60.00
20528;DHT22;23612;50.894;10.700;2023-08-24T12:23:58;36.90;59.70
20528;DHT22;23612;50.894;10.700;2023-08-24T12:26:24;36.80;59.30
20528;DHT22;23612;50.894;10.700;2023-08-24T12:28:50;36.20;58.40
20528;DHT22;23612;50.894;10.700;2023-08-24T12:31:19;35.70;58.30
20528;DHT22;23612;50.894;10.700;2023-08-24T12:33:45;35.90;62.10
20528;DHT22;23612;50.894;10.700;2023-08-24T12:36:11;36.10;58.90
20528;DHT22;23612;50.894;10.700;2023-08-24T12:38:37;35.40;58.10
20528;DHT22;23612;50.894;10.700;2023-08-24T12:41:03;34.70;59.40
20528;DHT22;23612;50.894;10.700;2023-08-24T12:43:29;35.40;60.90
20528;DHT22;23612;50.894;10.700;2023-08-24T12:45:54;35.60;59.10
20528;DHT22;23612;50.894;10.700;2023-08-24T12:48:20;34.80;59.20
20528;DHT22;23612;50.894;10.700;2023-08-24T12:50:45;34.10;60.30
20528;DHT22;23612;50.894;10.700;2023-08-24T12:53:11;33.60;63.00
20528;DHT22;23612;50.894;10.700;2023-08-24T12:55:39;34.00;61.90
20528;DHT22;23612;50.894;10.700;2023-08-24T12:58:08;33.50;61.70
20528;DHT22;23612;50.894;10.700;2023-08-24T13:00:34;33.40;64.20
20528;DHT22;23612;50.894;10.700;2023-08-24T13:02:59;33.80;62.70
20528;DHT22;23612;50.894;10.700;2023-08-24T13:05:25;34.40;65.30
20528;DHT22;23612;50.894;10.700;2023-08-24T13:07:50;34.60;61.40
20528;DHT22;23612;50.894;10.700;2023-08-24T13:10:16;34.30;62.50
20528;DHT22;23612;50.894;10.700;2023-08-24T13:12:42;34.20;63.10
20528;DHT22;23612;50.894;10.700;2023-08-24T13:15:08;33.30;65.90
20528;DHT22;23612;50.894;10.700;2023-08-24T13:17:34;33.20;67.80
20528;DHT22;23612;50.894;10.700;2023-08-24T13:20:00;33.40;67.30
20528;DHT22;23612;50.894;10.700;2023-08-24T13:22:25;33.60;69.10
20528;DHT22;23612;50.894;10.700;2023-08-24T13:24:51;33.30;68.50
20528;DHT22;23612;50.894;10.700;2023-08-24T13:27:17;32.90;66.00
20528;DHT22;23612;50.894;10.700;2023-08-24T13:29:42;32.80;68.90
20528;DHT22;23612;50.894;10.700;2023-08-24T13:32:08;32.70;71.00
20528;DHT22;23612;50.894;10.700;2023-08-24T13:34:33;32.50;73.00
20528;DHT22;23612;50.894;10.700;2023-08-24T13:36:59;32.10;71.10
20528;DHT22;23612;50.894;10.700;2023-08-24T13:39:28;31.70;68.30
20528;DHT22;23612;50.894;10.700;2023-08-24T13:41:55;31.30;68.90
20528;DHT22;23612;50.894;10.700;2023-08-24T13:44:21;31.20;71.00
20528;DHT22;23612;50.894;10.700;2023-08-24T13:46:47;31.20;70.90
20528;DHT22;23612;50.894;10.700;2023-08-24T13:49:12;30.90;71.90
20528;DHT22;23612;50.894;10.700;2023-08-24T13:51:38;30.80;72.50
20528;DHT22;23612;50.894;10.700;2023-08-24T13:54:15;30.90;72.40
20528;DHT22;23612;50.894;10.700;2023-08-24T13:56:45;31.40;73.20
20528;DHT22;23612;50.894;10.700;2023-08-24T13:59:12;31.80;72.80
20528;DHT22;23612;50.894;10.700;2023-08-24T14:01:37;31.70;73.00
20528;DHT22;23612;50.894;10.700;2023-08-24T14:04:03;32.10;76.60
20528;DHT22;23612;50.894;10.700;2023-08-24T14:06:30;32.20;74.70
20528;DHT22;23612;50.894;10.700;2023-08-24T14:08:56;32.10;74.30
20528;DHT22;23612;50.894;10.700;2023-08-24T14:11:22;32.00;75.80
20528;DHT22;23612;50.894;10.700;2023-08-24T14:13:48;31.90;77.10
20528;DHT22;23612;50.894;10.700;2023-08-24T14:16:13;31.80;78.10
20528;DHT22;23612;50.894;10.700;2023-08-24T14:18:39;31.70;77.30
20528;DHT22;23612;50.894;10.700;2023-08-24T14:21:05;31.50;76.60
20528;DHT22;23612;50.894;10.700;2023-08-24T14:23:30;31.30;77.30
20528;DHT22;23612;50.894;10.700;2023-08-24T14:25:56;31.10;78.00
20528;DHT22;23612;50.894;10.700;2023-08-24T14:28:22;30.90;78.20
20528;DHT22;23612;50.894;10.700;2023-08-24T14:30:51;30.80;78.80
20528;DHT22;23612;50.894;10.700;2023-08-24T14:33:17;30.70;80.30
20528;DHT22;23612;50.894;10.700;2023-08-24T14:35:50;30.70;81.60
20528;DHT22;23612;50.894;10.700;2023-08-24T14:38:16;30.80;82.50
20528;DHT22;23612;50.894;10.700;2023-08-24T14:40:41;30.70;80.60
20528;DHT22;23612;50.894;10.700;2023-08-24T14:43:07;30.80;82.20
20528;DHT22;23612;50.894;10.700;2023-08-24T14:45:32;30.70;81.40
20528;DHT22;23612;50.894;10.700;2023-08-24T14:47:58;30.50;81.00
20528;DHT22;23612;50.894;10.700;2023-08-24T14:50:23;30.40;81.90
20528;DHT22;23612;50.894;10.700;2023-08-24T14:52:49;30.30;82.20
20528;DHT22;23612;50.894;10.700;2023-08-24T14:55:14;30.30;83.10
20528;DHT22;23612;50.894;10.700;2023-08-24T14:57:40;30.20;81.70
20528;DHT22;23612;50.894;10.700;2023-08-24T15:00:06;30.20;81.30
20528;DHT22;23612;50.894;10.700;2023-08-24T15:02:35;30.00;82.80
20528;DHT22;23612;50.894;10.700;2023-08-24T15:05:02;29.70;87.60
20528;DHT22;23612;50.894;10.700;2023-08-24T15:07:28;29.40;89.80
20528;DHT22;23612;50.894;10.700;2023-08-24T15:09:54;29.20;87.70
20528;DHT22;23612;50.894;10.700;2023-08-24T15:12:20;29.10;88.70
20528;DHT22;23612;50.894;10.700;2023-08-24T15:15:03;29.00;86.60
20528;DHT22;23612;50.894;10.700;2023-08-24T15:17:30;28.80;87.90
20528;DHT22;23612;50.894;10.700;2023-08-24T15:19:56;28.80;90.10
20528;DHT22;23612;50.894;10.700;2023-08-24T15:22:24;28.80;90.00
20528;DHT22;23612;50.894;10.700;2023-08-24T15:24:54;28.70;90.10
20528;DHT22;23612;50.894;10.700;2023-08-24T15:27:20;28.80;90.00